Time;durP1;ratioP1;P1;durP2;ratioP2;P2;SDS_P1;SDS_P2;PMS_P1;PMS_P2;Temp;Humidity;BMP_temperature;BMP_pressure;BME280_temperature;BME280_humidity;BME280_pressure;Samples;Min_cycle;Max_cycle;Signal;HPM_P1;HPM_P2
2021/11/29 00:01:17;;;;;;;13.90;12.30;;;4.00;99.90;;;;;;5016855;28;20499;-87
2021/11/29 00:03:43;;;;;;;13.93;12.43;;;4.00;99.90;;;;;;5017130;28;20453;-87
2021/11/29 00:06:10;;;;;;;15.50;12.80;;;4.00;99.90;;;;;;5022761;28;20453;-87
2021/11/29 00:08:37;;;;;;;14.77;12.33;;;4.00;99.90;;;;;;5018618;28;20456;-85
2021/11/29 00:11:05;;;;;;;14.00;12.60;;;4.00;99.90;;;;;;5030370;28;20466;-87
2021/11/29 00:13:32;;;;;;;12.47;10.80;;;3.90;99.90;;;;;;5017624;28;20470;-86
2021/11/29 00:15:59;;;;;;;15.13;11.90;;;3.80;99.90;;;;;;5016755;28;20448;-87
2021/11/29 00:18:26;;;;;;;14.53;11.87;;;3.80;99.90;;;;;;5019705;28;20453;-86
2021/11/29 00:20:52;;;;;;;15.30;12.33;;;3.70;99.90;;;;;;5020838;28;20521;-86
2021/11/29 00:23:19;;;;;;;15.40;12.90;;;3.70;99.90;;;;;;5025626;28;20446;-86
2021/11/29 00:25:46;;;;;;;16.10;13.20;;;3.70;99.90;;;;;;5025500;28;20438;-87
2021/11/29 00:28:16;;;;;;;16.87;14.37;;;3.60;99.90;;;;;;5018416;28;20452;-88
2021/11/29 00:30:44;;;;;;;20.70;16.30;;;3.60;99.90;;;;;;5021042;28;21071;-87
2021/11/29 00:33:11;;;;;;;20.97;16.30;;;3.70;99.90;;;;;;5028986;28;20457;-87
2021/11/29 00:35:39;;;;;;;20.23;17.13;;;3.70;99.90;;;;;;5020061;28;20455;-86
2021/11/29 00:38:06;;;;;;;23.23;17.40;;;3.70;99.90;;;;;;5018733;28;20456;-87
2021/11/29 00:40:34;;;;;;;21.20;17.60;;;3.70;99.90;;;;;;5017436;28;20472;-87
2021/11/29 00:43:01;;;;;;;22.93;17.23;;;3.80;99.90;;;;;;5019392;28;20480;-87
2021/11/29 00:45:29;;;;;;;20.03;16.07;;;3.70;99.90;;;;;;5022766;28;20449;-86
2021/11/29 00:47:56;;;;;;;20.60;16.93;;;3.70;99.90;;;;;;5020821;28;20540;-87
2021/11/29 00:50:23;;;;;;;19.60;16.80;;;3.80;99.90;;;;;;5016768;28;20481;-88
2021/11/29 00:52:50;;;;;;;21.83;16.40;;;3.80;99.90;;;;;;5018389;28;20457;-88
2021/11/29 00:55:18;;;;;;;22.00;17.27;;;3.80;99.90;;;;;;5022797;28;20486;-87
2021/11/29 00:57:45;;;;;;;21.37;17.07;;;3.80;99.90;;;;;;5020134;28;20503;-88
2021/11/29 01:00:15;;;;;;;20.07;16.10;;;3.80;99.90;;;;;;5016086;28;21186;-87
2021/11/29 01:02:43;;;;;;;24.13;18.27;;;3.90;99.90;;;;;;5016377;28;20477;-87
2021/11/29 01:05:10;;;;;;;20.90;17.13;;;3.80;99.90;;;;;;5016481;28;20458;-87
2021/11/29 01:07:38;;;;;;;27.60;19.80;;;3.80;99.90;;;;;;5015874;28;20457;-87
2021/11/29 01:10:07;;;;;;;23.43;18.73;;;3.80;99.90;;;;;;5015829;28;20477;-88
2021/11/29 01:12:34;;;;;;;21.40;16.43;;;3.80;99.90;;;;;;5015260;28;20468;-87
2021/11/29 01:15:01;;;;;;;24.33;19.93;;;3.80;99.90;;;;;;5016064;28;20460;-87
2021/11/29 01:17:28;;;;;;;24.83;19.70;;;3.80;99.90;;;;;;5016206;28;20452;-87
2021/11/29 01:19:56;;;;;;;22.80;17.47;;;3.80;99.90;;;;;;5020353;28;20457;-86
2021/11/29 01:22:23;;;;;;;23.53;16.87;;;3.90;99.90;;;;;;5030624;28;20522;-87
2021/11/29 01:24:50;;;;;;;23.70;18.37;;;3.90;99.90;;;;;;5039198;28;20434;-86
2021/11/29 01:27:17;;;;;;;22.07;18.23;;;3.80;99.90;;;;;;5024137;28;20437;-87
2021/11/29 01:29:44;;;;;;;22.47;17.53;;;3.90;99.90;;;;;;5024203;28;20432;-85
2021/11/29 01:32:10;;;;;;;24.37;19.60;;;3.80;99.90;;;;;;5020650;28;20449;-87
2021/11/29 01:34:37;;;;;;;23.70;19.30;;;3.80;99.90;;;;;;5017010;28;20450;-87
2021/11/29 01:37:06;;;;;;;26.03;18.57;;;3.80;99.90;;;;;;5018746;28;20458;-87
2021/11/29 01:39:32;;;;;;;22.73;19.27;;;3.80;99.90;;;;;;5019987;28;20448;-86
2021/11/29 01:41:59;;;;;;;24.70;19.17;;;3.80;99.90;;;;;;5016692;28;20496;-86
2021/11/29 01:44:26;;;;;;;24.37;19.47;;;3.80;99.90;;;;;;5017033;28;20438;-86
2021/11/29 01:46:53;;;;;;;26.20;20.37;;;3.80;99.90;;;;;;5030468;28;20454;-86
2021/11/29 01:49:19;;;;;;;24.23;19.13;;;3.80;99.90;;;;;;5025941;28;20444;-87
2021/11/29 01:51:46;;;;;;;25.57;18.80;;;3.90;99.90;;;;;;5036957;28;20480;-86
2021/11/29 01:54:14;;;;;;;24.90;18.97;;;3.90;99.90;;;;;;5029114;28;20513;-86
2021/11/29 01:56:42;;;;;;;27.67;21.40;;;3.90;99.90;;;;;;5028995;28;20865;-86
2021/11/29 01:59:09;;;;;;;27.63;21.20;;;3.90;99.90;;;;;;5028809;28;20538;-86
2021/11/29 02:01:36;;;;;;;27.23;19.73;;;3.80;99.90;;;;;;5017891;28;20501;-86
2021/11/29 02:04:04;;;;;;;28.87;21.47;;;3.80;99.90;;;;;;5018069;28;20456;-89
2021/11/29 02:06:33;;;;;;;26.97;19.80;;;3.70;99.90;;;;;;5026704;28;20436;-88
2021/11/29 02:09:00;;;;;;;30.50;21.60;;;3.70;99.90;;;;;;5016301;28;20454;-87
2021/11/29 02:11:28;;;;;;;25.43;20.93;;;3.70;99.90;;;;;;5014643;28;20480;-86
2021/11/29 02:13:58;;;;;;;30.40;21.77;;;3.70;99.90;;;;;;5015515;28;20457;-86
2021/11/29 02:16:26;;;;;;;31.70;21.77;;;3.80;99.90;;;;;;5015469;28;20556;-86
2021/11/29 02:18:53;;;;;;;24.80;20.97;;;3.80;99.90;;;;;;4999459;28;20457;-87
2021/11/29 02:21:23;;;;;;;26.33;21.23;;;3.80;99.90;;;;;;4995800;28;20484;-86
2021/11/29 02:23:53;;;;;;;32.30;22.00;;;3.80;99.90;;;;;;4995888;28;20466;-87
2021/11/29 02:26:22;;;;;;;28.10;21.90;;;3.80;99.90;;;;;;4997086;28;20462;-87
2021/11/29 02:28:53;;;;;;;33.20;22.30;;;3.90;99.90;;;;;;5015054;28;20457;-85
2021/11/29 02:31:24;;;;;;;28.60;22.40;;;3.90;99.90;;;;;;5016184;28;20469;-85
2021/11/29 02:33:50;;;;;;;27.27;21.77;;;3.90;99.90;;;;;;5017235;28;20450;-86
2021/11/29 02:36:17;;;;;;;29.63;22.60;;;4.00;99.90;;;;;;5026707;28;20457;-87
2021/11/29 02:38:45;;;;;;;28.83;22.40;;;4.00;99.90;;;;;;5023167;28;20448;-87
2021/11/29 02:41:12;;;;;;;30.07;22.33;;;4.00;99.90;;;;;;5016082;28;20477;-87
2021/11/29 02:43:40;;;;;;;30.70;22.63;;;4.00;99.90;;;;;;5017063;28;20507;-86
2021/11/29 02:46:07;;;;;;;30.67;22.63;;;4.00;99.90;;;;;;5014912;28;20456;-87
2021/11/29 02:48:42;;;;;;;32.83;23.93;;;4.00;99.90;;;;;;5020702;28;20962;-86
2021/11/29 02:51:16;;;;;;;35.10;23.77;;;4.00;99.90;;;;;;5021486;28;20478;-87
2021/11/29 02:53:44;;;;;;;29.50;21.53;;;3.90;99.90;;;;;;5021432;28;20453;-87
2021/11/29 02:56:11;;;;;;;28.87;22.37;;;3.90;99.90;;;;;;5017124;28;20475;-87
2021/11/29 02:58:41;;;;;;;30.33;22.20;;;3.90;99.90;;;;;;5023681;28;20452;-87
2021/11/29 03:01:08;;;;;;;29.57;23.17;;;3.90;99.90;;;;;;5023160;28;20481;-87
2021/11/29 03:03:44;;;;;;;31.60;24.00;;;3.80;99.90;;;;;;5018646;28;20856;-87
2021/11/29 03:06:11;;;;;;;33.43;24.60;;;3.90;99.90;;;;;;5021004;28;20842;-87
2021/11/29 03:08:37;;;;;;;31.93;25.37;;;3.90;99.90;;;;;;5028658;28;20447;-86
2021/11/29 03:11:05;;;;;;;32.17;24.57;;;3.90;99.90;;;;;;5031174;28;20470;-87
2021/11/29 03:13:32;;;;;;;34.00;27.17;;;3.90;99.90;;;;;;5038391;28;20447;-87
2021/11/29 03:15:59;;;;;;;32.97;25.57;;;3.90;99.90;;;;;;5032347;28;20456;-86
2021/11/29 03:18:30;;;;;;;33.57;26.83;;;3.90;99.90;;;;;;5021756;28;20942;-87
2021/11/29 03:20:57;;;;;;;28.90;24.17;;;3.90;99.90;;;;;;5025377;28;20491;-88
2021/11/29 03:23:24;;;;;;;32.40;22.70;;;3.90;99.90;;;;;;5022594;28;20580;-87
2021/11/29 03:25:51;;;;;;;33.07;24.33;;;3.80;99.90;;;;;;5023529;28;20439;-87
2021/11/29 03:28:19;;;;;;;33.27;24.80;;;3.80;99.90;;;;;;5022518;28;20449;-86
2021/11/29 03:30:45;;;;;;;32.67;24.57;;;3.80;99.90;;;;;;5019573;28;20856;-87
2021/11/29 03:33:12;;;;;;;28.97;22.90;;;3.80;99.90;;;;;;5025253;28;20452;-87
2021/11/29 03:35:39;;;;;;;31.63;24.67;;;3.80;99.90;;;;;;5022650;28;20461;-87
2021/11/29 03:38:08;;;;;;;27.90;21.57;;;3.70;99.90;;;;;;5026376;28;20449;-86
2021/11/29 03:40:36;;;;;;;26.20;20.70;;;3.70;99.90;;;;;;5019043;28;20817;-87
2021/11/29 03:43:44;;;;;;;26.37;20.43;;;3.70;99.90;;;;;;5020477;28;20495;-88
2021/11/29 03:46:11;;;;;;;30.30;22.50;;;3.70;99.90;;;;;;4999312;28;20449;-88
2021/11/29 03:48:38;;;;;;;31.70;23.30;;;3.70;99.90;;;;;;5000251;28;20460;-87
2021/11/29 03:51:05;;;;;;;28.53;23.23;;;3.70;99.90;;;;;;5018497;28;20471;-88
2021/11/29 03:53:32;;;;;;;32.17;24.37;;;3.60;99.90;;;;;;5019662;28;20438;-88
2021/11/29 03:56:00;;;;;;;33.97;23.83;;;3.70;99.90;;;;;;5021089;28;20456;-87
2021/11/29 03:58:27;;;;;;;30.27;23.47;;;3.70;99.90;;;;;;5019641;28;20438;-89
2021/11/29 04:00:56;;;;;;;29.43;21.70;;;3.70;99.90;;;;;;5018991;28;20471;-88
2021/11/29 04:03:24;;;;;;;28.90;20.77;;;3.70;99.90;;;;;;5018809;28;20485;-88
2021/11/29 04:05:51;;;;;;;30.53;23.50;;;3.70;99.90;;;;;;5020346;28;20449;-88
2021/11/29 04:08:18;;;;;;;29.33;21.30;;;3.70;99.90;;;;;;5031550;28;20434;-88
2021/11/29 04:10:44;;;;;;;28.80;21.90;;;3.70;99.90;;;;;;5032046;28;20533;-88
2021/11/29 04:13:12;;;;;;;27.57;21.30;;;3.80;99.90;;;;;;5040578;28;20451;-88
2021/11/29 04:15:39;;;;;;;24.90;19.77;;;3.80;99.90;;;;;;5027659;28;20439;-88
2021/11/29 04:18:07;;;;;;;23.80;19.90;;;3.70;99.90;;;;;;5038182;28;20604;-88
2021/11/29 04:20:33;;;;;;;27.33;21.33;;;3.70;99.90;;;;;;5023280;28;20476;-89
2021/11/29 04:23:01;;;;;;;26.33;21.27;;;3.70;99.90;;;;;;5020634;28;20493;-88
2021/11/29 04:25:34;;;;;;;30.57;21.60;;;3.80;99.90;;;;;;5023511;28;20446;-88
2021/11/29 04:28:01;;;;;;;28.57;23.10;;;3.90;99.90;;;;;;5028042;28;20486;-90
2021/11/29 04:30:28;;;;;;;26.50;21.87;;;3.80;99.90;;;;;;5018665;28;20490;-87
2021/11/29 04:32:57;;;;;;;28.77;20.97;;;3.80;99.90;;;;;;5028969;28;20454;-89
2021/11/29 04:35:27;;;;;;;29.47;20.97;;;3.80;99.90;;;;;;5020217;28;20435;-89
2021/11/29 04:37:54;;;;;;;29.73;21.40;;;3.80;99.90;;;;;;5020291;28;20509;-88
2021/11/29 04:40:21;;;;;;;32.90;23.20;;;3.80;99.90;;;;;;5019164;28;20470;-87
2021/11/29 04:42:48;;;;;;;29.37;21.30;;;3.80;99.90;;;;;;5018860;28;20480;-87
2021/11/29 04:45:15;;;;;;;26.13;20.60;;;3.90;99.90;;;;;;5018978;28;20815;-87
2021/11/29 04:47:42;;;;;;;29.57;21.80;;;3.90;99.90;;;;;;5020031;28;20439;-89
2021/11/29 04:50:10;;;;;;;26.80;19.37;;;3.80;99.90;;;;;;5021521;28;20465;-87
2021/11/29 04:52:39;;;;;;;26.80;20.10;;;3.80;99.90;;;;;;5027183;28;20438;-86
2021/11/29 04:55:07;;;;;;;29.90;21.50;;;3.80;99.90;;;;;;5030366;28;20462;-89
2021/11/29 04:57:34;;;;;;;26.60;20.40;;;3.80;99.90;;;;;;5039164;28;20443;-89
2021/11/29 05:00:01;;;;;;;26.90;19.63;;;3.80;99.90;;;;;;5031072;28;20457;-90
2021/11/29 05:02:28;;;;;;;32.73;20.97;;;3.70;99.90;;;;;;5036622;28;20480;-88
2021/11/29 05:04:54;;;;;;;31.90;20.93;;;3.80;99.90;;;;;;5032538;28;20461;-87
2021/11/29 05:07:25;;;;;;;27.50;19.67;;;3.80;99.90;;;;;;5004807;28;20477;-88
2021/11/29 05:09:54;;;;;;;32.53;21.77;;;3.80;99.90;;;;;;5011108;28;20543;-89
2021/11/29 05:12:28;;;;;;;28.80;19.50;;;3.90;99.90;;;;;;5020650;28;20458;-89
2021/11/29 05:14:55;;;;;;;24.93;17.97;;;3.80;99.90;;;;;;5018081;28;20453;-89
2021/11/29 05:17:22;;;;;;;25.00;19.73;;;3.90;99.90;;;;;;5019233;28;20444;-88
2021/11/29 05:19:49;;;;;;;26.20;20.67;;;3.80;99.90;;;;;;5020194;28;20460;-89
2021/11/29 05:22:16;;;;;;;28.87;20.10;;;3.80;99.90;;;;;;5017743;28;20460;-88
2021/11/29 05:24:43;;;;;;;28.03;21.63;;;3.80;99.90;;;;;;5017597;28;20444;-88
2021/11/29 05:27:11;;;;;;;26.03;19.97;;;3.80;99.90;;;;;;5029309;28;20453;-89
2021/11/29 05:29:40;;;;;;;24.97;19.33;;;3.80;99.90;;;;;;5017041;28;20533;-88
2021/11/29 05:32:08;;;;;;;30.20;19.97;;;3.90;99.90;;;;;;5016490;28;20595;-87
2021/11/29 05:34:35;;;;;;;25.93;19.47;;;3.80;99.90;;;;;;5016941;28;20583;-88
2021/11/29 05:37:02;;;;;;;27.10;20.47;;;3.80;99.90;;;;;;5016002;28;20446;-88
2021/11/29 05:39:28;;;;;;;26.73;20.43;;;3.80;99.90;;;;;;5016154;28;20466;-88
2021/11/29 05:41:55;;;;;;;26.93;20.40;;;3.80;99.90;;;;;;5016820;28;20470;-89
2021/11/29 05:44:23;;;;;;;32.13;21.70;;;3.70;99.90;;;;;;5020463;28;20486;-88
2021/11/29 05:46:50;;;;;;;28.50;19.93;;;3.80;99.90;;;;;;5023923;28;20454;-89
2021/11/29 05:49:17;;;;;;;28.27;20.23;;;3.80;99.90;;;;;;5017932;28;20508;-88
2021/11/29 05:51:44;;;;;;;27.93;20.10;;;3.80;99.90;;;;;;5015788;28;20454;-88
2021/11/29 05:54:11;;;;;;;27.07;20.27;;;3.70;99.90;;;;;;5022988;28;20437;-89
2021/11/29 05:56:38;;;;;;;28.50;21.00;;;3.80;99.90;;;;;;5023882;28;20942;-89
2021/11/29 05:59:05;;;;;;;26.40;18.90;;;3.70;99.90;;;;;;5016059;28;20449;-88
2021/11/29 06:01:34;;;;;;;28.20;19.67;;;3.80;99.90;;;;;;5016239;28;20486;-88
2021/11/29 06:04:01;;;;;;;25.43;18.47;;;3.80;99.90;;;;;;5023721;28;20474;-88
2021/11/29 06:06:28;;;;;;;25.70;18.77;;;3.80;99.90;;;;;;5020518;28;20942;-87
2021/11/29 06:08:55;;;;;;;25.23;18.53;;;3.70;99.90;;;;;;5017100;28;20459;-88
2021/11/29 06:11:22;;;;;;;23.80;19.57;;;3.70;99.90;;;;;;5020132;28;20456;-88
2021/11/29 06:13:50;;;;;;;29.40;20.07;;;3.70;99.90;;;;;;5018813;28;20483;-88
2021/11/29 06:16:17;;;;;;;25.70;18.90;;;3.70;99.90;;;;;;5019548;28;20492;-88
2021/11/29 06:18:45;;;;;;;24.17;16.80;;;3.70;99.90;;;;;;5017142;28;20448;-89
2021/11/29 06:21:12;;;;;;;30.23;18.50;;;3.70;99.90;;;;;;5019869;28;20480;-91
2021/11/29 06:23:39;;;;;;;23.43;19.37;;;3.70;99.90;;;;;;5019833;28;21056;-86
2021/11/29 06:26:06;;;;;;;22.90;17.93;;;3.70;99.90;;;;;;5027282;28;20462;-86
2021/11/29 06:28:33;;;;;;;26.37;17.17;;;3.70;99.90;;;;;;5015116;28;20458;-85
2021/11/29 06:30:59;;;;;;;21.83;17.02;;;3.70;99.90;;;;;;5018665;28;20654;-86
2021/11/29 06:33:26;;;;;;;27.03;18.43;;;3.70;99.90;;;;;;5034056;28;20206;-85
2021/11/29 06:35:59;;;;;;;25.80;18.00;;;3.70;99.90;;;;;;5028259;28;20443;-85
2021/11/29 06:38:29;;;;;;;21.90;16.90;;;3.60;99.90;;;;;;5033238;28;20456;-84
2021/11/29 06:40:57;;;;;;;23.97;17.90;;;3.60;99.90;;;;;;5035367;28;20676;-85
2021/11/29 06:43:25;;;;;;;21.57;16.63;;;3.60;99.90;;;;;;5025020;28;21010;-85
2021/11/29 06:45:53;;;;;;;20.73;15.10;;;3.60;99.90;;;;;;5018957;28;20844;-85
2021/11/29 06:48:21;;;;;;;22.97;17.00;;;3.60;99.90;;;;;;5025735;28;20488;-85
2021/11/29 06:50:49;;;;;;;23.93;17.83;;;3.60;99.90;;;;;;5041022;28;20446;-85
2021/11/29 06:53:17;;;;;;;21.40;15.70;;;3.70;99.90;;;;;;5034907;28;20829;-85
2021/11/29 06:55:56;;;;;;;21.00;16.13;;;3.70;99.90;;;;;;5029537;28;20440;-85
2021/11/29 06:58:26;;;;;;;18.17;14.10;;;3.70;99.90;;;;;;5023001;28;20839;-85
2021/11/29 07:01:04;;;;;;;21.03;15.70;;;3.70;99.90;;;;;;5020864;28;20470;-85
2021/11/29 07:03:41;;;;;;;22.87;15.53;;;3.70;99.90;;;;;;5026715;28;20615;-86
2021/11/29 07:06:24;;;;;;;22.80;16.33;;;3.70;99.90;;;;;;5033308;28;20453;-85
2021/11/29 07:09:00;;;;;;;18.50;14.40;;;3.60;99.90;;;;;;5020715;28;20441;-86
2021/11/29 07:11:45;;;;;;;21.80;15.83;;;3.60;99.90;;;;;;5020442;28;20904;-86
2021/11/29 07:14:22;;;;;;;19.33;14.57;;;3.60;99.90;;;;;;5028922;28;20499;-86
2021/11/29 07:16:57;;;;;;;19.93;14.37;;;3.60;99.90;;;;;;5025249;28;20437;-85
2021/11/29 07:19:27;;;;;;;16.03;13.80;;;3.60;99.90;;;;;;5015709;28;20564;-88
2021/11/29 07:21:55;;;;;;;19.90;15.73;;;3.60;99.90;;;;;;5031337;28;20469;-85
2021/11/29 07:24:23;;;;;;;21.20;13.83;;;3.60;99.90;;;;;;5025571;28;20482;-87
2021/11/29 07:26:50;;;;;;;20.57;13.13;;;3.70;99.90;;;;;;5023965;28;20456;-85
2021/11/29 07:29:17;;;;;;;16.10;11.90;;;3.70;99.90;;;;;;5027690;28;20450;-86
2021/11/29 07:31:44;;;;;;;18.03;12.87;;;3.70;99.90;;;;;;5019178;28;20461;-85
2021/11/29 07:34:13;;;;;;;21.10;14.33;;;3.80;99.90;;;;;;5018613;28;20446;-85
2021/11/29 07:36:40;;;;;;;17.83;13.60;;;3.80;99.90;;;;;;5014214;28;20510;-85
2021/11/29 07:39:10;;;;;;;15.93;11.00;;;3.80;99.90;;;;;;5016946;28;20927;-86
2021/11/29 07:41:38;;;;;;;12.40;9.70;;;3.80;99.90;;;;;;5015156;28;20471;-85
2021/11/29 07:44:05;;;;;;;16.00;10.80;;;3.90;99.90;;;;;;5025380;28;20563;-86
2021/11/29 07:46:32;;;;;;;15.50;10.20;;;3.90;99.90;;;;;;5014779;28;20445;-85
2021/11/29 07:49:00;;;;;;;16.60;10.07;;;3.90;99.90;;;;;;5014066;28;20547;-85
2021/11/29 07:51:43;;;;;;;13.50;11.17;;;4.00;99.90;;;;;;5015921;28;20501;-85
2021/11/29 07:54:10;;;;;;;14.20;10.40;;;4.00;99.90;;;;;;4995653;28;20924;-85
2021/11/29 07:56:38;;;;;;;14.73;10.07;;;4.10;99.90;;;;;;4995605;28;20450;-84
2021/11/29 07:59:05;;;;;;;14.57;10.30;;;4.10;99.90;;;;;;5020595;28;20453;-84
2021/11/29 08:01:33;;;;;;;12.40;8.77;;;4.10;99.90;;;;;;5015453;28;20469;-86
2021/11/29 08:04:00;;;;;;;12.73;10.70;;;4.10;99.90;;;;;;5013550;28;20475;-85
2021/11/29 08:06:26;;;;;;;12.60;9.30;;;4.10;99.90;;;;;;5009512;28;20458;-87
2021/11/29 08:08:53;;;;;;;14.30;8.73;;;4.10;99.90;;;;;;5012259;28;20450;-86
2021/11/29 08:11:20;;;;;;;14.43;8.80;;;4.00;99.90;;;;;;5017081;28;20468;-86
2021/11/29 08:13:48;;;;;;;16.93;9.50;;;4.00;99.90;;;;;;5016161;28;20449;-88
2021/11/29 08:16:15;;;;;;;9.67;8.40;;;3.90;99.90;;;;;;5025741;28;20441;-87
2021/11/29 08:18:42;;;;;;;12.93;8.80;;;3.90;99.90;;;;;;5020692;28;20454;-88
2021/11/29 08:21:09;;;;;;;16.53;10.47;;;3.90;99.90;;;;;;5019437;28;20837;-86
2021/11/29 08:23:36;;;;;;;11.30;9.27;;;3.90;99.90;;;;;;5034913;28;20465;-88
2021/11/29 08:26:04;;;;;;;10.57;8.77;;;4.00;99.90;;;;;;5039014;28;20450;-87
2021/11/29 08:28:31;;;;;;;13.20;9.53;;;4.10;99.90;;;;;;5022276;28;20451;-86
2021/11/29 08:30:59;;;;;;;11.23;8.97;;;4.20;99.90;;;;;;5018386;28;20468;-86
2021/11/29 08:33:27;;;;;;;12.83;10.50;;;4.30;99.90;;;;;;5018172;28;20541;-86
2021/11/29 08:35:54;;;;;;;14.57;8.37;;;4.50;99.90;;;;;;5018368;28;20457;-86
2021/11/29 08:38:21;;;;;;;11.67;9.47;;;4.60;99.90;;;;;;5018779;28;20475;-86
2021/11/29 08:40:49;;;;;;;11.70;9.13;;;4.70;99.90;;;;;;5026222;28;20456;-87
2021/11/29 08:43:18;;;;;;;11.87;9.47;;;4.90;99.90;;;;;;5037383;28;20430;-88
2021/11/29 08:45:46;;;;;;;12.90;8.07;;;5.10;99.90;;;;;;5018042;28;20523;-87
2021/11/29 08:48:15;;;;;;;13.07;8.73;;;5.40;99.90;;;;;;5017474;28;20472;-88
2021/11/29 08:50:44;;;;;;;12.03;9.10;;;5.60;99.90;;;;;;5026759;28;20481;-87
2021/11/29 08:53:13;;;;;;;18.50;9.30;;;5.60;99.90;;;;;;5036983;28;20434;-88
2021/11/29 08:55:40;;;;;;;11.17;7.67;;;5.80;99.90;;;;;;5029088;28;20827;-87
2021/11/29 08:58:09;;;;;;;12.27;7.73;;;5.90;99.90;;;;;;5033912;28;20493;-87
2021/11/29 09:00:39;;;;;;;9.97;8.03;;;5.80;99.90;;;;;;5031025;28;20483;-86
2021/11/29 09:03:08;;;;;;;11.20;8.67;;;5.70;99.90;;;;;;5022649;28;20462;-88
2021/11/29 09:05:52;;;;;;;11.07;9.10;;;5.70;99.90;;;;;;5030756;28;20473;-86
2021/11/29 09:08:22;;;;;;;14.30;10.13;;;5.80;99.90;;;;;;5030207;28;20450;-87
2021/11/29 09:10:50;;;;;;;9.73;7.63;;;5.80;99.90;;;;;;5021718;28;21014;-87
2021/11/29 09:13:17;;;;;;;13.03;7.50;;;5.80;99.90;;;;;;5031878;28;20440;-85
2021/11/29 09:15:45;;;;;;;8.50;7.60;;;5.70;99.90;;;;;;5027545;28;20522;-85
2021/11/29 09:18:13;;;;;;;11.33;8.37;;;5.60;99.90;;;;;;5019151;28;20456;-85
2021/11/29 09:20:43;;;;;;;9.60;7.70;;;5.50;99.90;;;;;;5023398;28;20474;-88
2021/11/29 09:23:11;;;;;;;10.17;8.80;;;5.40;99.90;;;;;;5021458;28;20442;-80
2021/11/29 09:25:41;;;;;;;12.27;7.33;;;5.40;99.90;;;;;;5023679;28;20477;-81
2021/11/29 09:28:09;;;;;;;11.07;7.57;;;5.50;99.90;;;;;;5019360;28;20446;-80
2021/11/29 09:30:37;;;;;;;11.10;8.80;;;5.70;99.90;;;;;;5018372;28;20469;-87
2021/11/29 09:33:04;;;;;;;10.13;7.17;;;5.70;99.90;;;;;;5020646;28;20453;-89
2021/11/29 09:35:31;;;;;;;8.80;6.60;;;5.80;99.90;;;;;;5005126;28;20510;-88
2021/11/29 09:38:00;;;;;;;9.10;7.87;;;5.80;99.90;;;;;;5016563;28;20453;-87
2021/11/29 09:40:29;;;;;;;9.33;7.73;;;5.90;99.90;;;;;;5011940;28;20470;-88
2021/11/29 09:42:57;;;;;;;12.03;7.47;;;6.00;99.90;;;;;;4999263;28;20451;-87
2021/11/29 09:45:26;;;;;;;10.30;7.10;;;6.40;99.90;;;;;;4996857;28;21029;-87
2021/11/29 09:47:54;;;;;;;7.03;6.20;;;6.70;99.90;;;;;;4995276;28;20574;-87
2021/11/29 09:50:21;;;;;;;8.67;6.13;;;7.30;99.90;;;;;;4995011;28;20474;-86
2021/11/29 09:52:48;;;;;;;7.77;6.20;;;7.90;99.90;;;;;;5013658;28;20545;-89
2021/11/29 09:55:18;;;;;;;10.77;5.90;;;8.80;99.40;;;;;;5017503;28;20446;-87
2021/11/29 09:57:45;;;;;;;7.53;5.20;;;10.30;95.70;;;;;;5017832;28;20450;-88
2021/11/29 10:00:17;;;;;;;6.30;4.93;;;11.20;92.90;;;;;;5016021;28;20470;-87
2021/11/29 10:02:44;;;;;;;7.50;5.50;;;11.20;91.20;;;;;;5019042;28;20951;-86
2021/11/29 10:05:11;;;;;;;7.63;5.60;;;11.40;90.50;;;;;;5016452;28;20481;-88
2021/11/29 10:07:45;;;;;;;7.13;5.20;;;11.80;89.00;;;;;;5020750;28;20451;-89
2021/11/29 10:10:18;;;;;;;7.90;6.80;;;11.80;86.70;;;;;;5018822;28;20486;-90
2021/11/29 10:12:47;;;;;;;8.87;6.07;;;11.90;86.30;;;;;;5021688;28;20464;-88
2021/11/29 10:15:22;;;;;;;9.50;5.40;;;11.90;85.90;;;;;;5023591;28;20446;-88
2021/11/29 10:17:52;;;;;;;8.20;5.80;;;12.10;84.90;;;;;;5028021;28;20425;-86
2021/11/29 10:20:19;;;;;;;5.23;4.70;;;11.30;84.50;;;;;;5030156;28;20466;-90
2021/11/29 10:23:01;;;;;;;6.90;5.43;;;10.70;86.60;;;;;;5019578;28;20454;-88
2021/11/29 10:25:30;;;;;;;7.20;5.03;;;10.30;88.80;;;;;;5017864;28;20492;-88
2021/11/29 10:27:57;;;;;;;7.43;5.80;;;10.20;90.00;;;;;;5018500;28;20449;-88
2021/11/29 10:30:28;;;;;;;7.97;5.30;;;10.00;90.50;;;;;;5027133;28;20466;-88
2021/11/29 10:32:56;;;;;;;6.80;4.80;;;10.10;90.20;;;;;;5032021;28;20481;-88
2021/11/29 10:35:29;;;;;;;12.47;6.47;;;11.10;90.00;;;;;;5017388;28;20446;-89
2021/11/29 10:37:57;;;;;;;6.87;4.93;;;11.30;86.00;;;;;;5030507;28;20491;-87
2021/11/29 10:40:24;;;;;;;8.13;7.07;;;10.90;86.20;;;;;;5023508;28;20472;-87
2021/11/29 10:42:52;;;;;;;5.50;4.77;;;10.30;87.70;;;;;;5019090;28;20457;-88
2021/11/29 10:45:23;;;;;;;6.87;5.00;;;9.70;89.60;;;;;;5014338;28;20508;-86
2021/11/29 10:47:52;;;;;;;6.93;4.80;;;9.30;90.40;;;;;;5013259;28;20833;-87
2021/11/29 10:50:24;;;;;;;10.60;5.00;;;9.10;90.90;;;;;;5014336;28;20473;-87
2021/11/29 10:53:06;;;;;;;7.63;4.97;;;8.80;91.10;;;;;;5014705;28;20512;-88
2021/11/29 10:55:33;;;;;;;14.63;6.73;;;8.90;91.50;;;;;;5017564;28;20445;-87
2021/11/29 10:58:01;;;;;;;6.60;5.80;;;9.10;91.60;;;;;;5025215;28;20454;-86
2021/11/29 11:00:38;;;;;;;7.47;5.67;;;9.40;91.10;;;;;;5012391;28;20478;-88
2021/11/29 11:03:06;;;;;;;10.10;6.67;;;9.50;90.90;;;;;;5015735;28;20438;-87
2021/11/29 11:05:33;;;;;;;7.03;4.80;;;9.60;91.20;;;;;;5025598;28;20482;-87
2021/11/29 11:08:10;;;;;;;5.90;4.37;;;9.30;91.30;;;;;;5029848;28;20533;-87
2021/11/29 11:10:37;;;;;;;8.13;4.43;;;9.00;90.90;;;;;;5028684;28;20469;-86
2021/11/29 11:13:05;;;;;;;8.00;6.00;;;8.60;91.50;;;;;;5009758;28;20954;-87
2021/11/29 11:15:44;;;;;;;5.80;4.80;;;8.20;92.20;;;;;;5011857;28;20878;-86
2021/11/29 11:18:11;;;;;;;8.37;5.43;;;7.80;92.60;;;;;;5009815;28;20468;-87
2021/11/29 11:20:39;;;;;;;8.50;5.30;;;7.60;93.40;;;;;;5021834;28;20514;-88
2021/11/29 11:23:05;;;;;;;10.23;6.17;;;7.50;93.80;;;;;;5008461;28;20438;-88
2021/11/29 11:25:34;;;;;;;9.70;5.97;;;7.30;94.40;;;;;;5014572;28;20854;-85
2021/11/29 11:28:04;;;;;;;10.07;5.53;;;7.20;95.00;;;;;;5009987;28;20458;-87
2021/11/29 11:30:35;;;;;;;8.97;5.37;;;7.00;95.10;;;;;;5002889;28;20467;-88
2021/11/29 11:33:06;;;;;;;7.67;5.30;;;6.80;95.50;;;;;;5000598;28;20455;-87
2021/11/29 11:35:36;;;;;;;7.20;5.23;;;7.40;96.30;;;;;;5001612;28;20450;-87
2021/11/29 11:38:05;;;;;;;7.50;5.83;;;9.60;94.50;;;;;;5012823;28;20457;-86
2021/11/29 11:40:35;;;;;;;8.87;7.47;;;10.50;90.60;;;;;;5009366;28;20474;-87
2021/11/29 11:43:04;;;;;;;11.60;7.30;;;10.10;88.40;;;;;;5005901;28;20473;-86
2021/11/29 11:45:34;;;;;;;8.47;6.50;;;9.60;90.60;;;;;;5015718;28;20486;-86
2021/11/29 11:48:02;;;;;;;12.63;6.20;;;9.00;91.10;;;;;;5020401;28;20438;-87
2021/11/29 11:50:33;;;;;;;7.13;5.83;;;8.90;91.50;;;;;;5014296;28;20470;-87
2021/11/29 11:53:01;;;;;;;8.30;4.80;;;9.20;91.50;;;;;;5035028;28;20494;-87
2021/11/29 11:55:34;;;;;;;6.27;4.70;;;9.10;91.20;;;;;;5016190;28;20449;-86
2021/11/29 11:58:04;;;;;;;6.93;5.60;;;9.40;90.70;;;;;;5022801;28;20830;-87
2021/11/29 12:00:36;;;;;;;6.37;5.37;;;9.40;91.10;;;;;;5022125;28;21024;-86
2021/11/29 12:03:11;;;;;;;9.00;5.00;;;9.10;91.10;;;;;;5028469;28;20528;-87
2021/11/29 12:05:47;;;;;;;7.60;5.20;;;9.40;91.50;;;;;;5021773;28;20484;-86
2021/11/29 12:08:36;;;;;;;6.60;4.50;;;11.10;89.00;;;;;;5027538;28;20446;-86
2021/11/29 12:11:08;;;;;;;6.87;5.57;;;10.90;84.90;;;;;;5023708;28;20458;-88
2021/11/29 12:13:43;;;;;;;10.10;5.87;;;10.30;86.30;;;;;;5026019;28;20457;-86
2021/11/29 12:16:12;;;;;;;14.83;6.40;;;9.70;89.40;;;;;;5036122;28;20429;-87
2021/11/29 12:18:47;;;;;;;7.60;5.10;;;9.20;90.00;;;;;;5039679;28;20438;-85
2021/11/29 12:21:18;;;;;;;7.20;5.07;;;8.80;90.60;;;;;;5044639;28;20461;-86
2021/11/29 12:23:53;;;;;;;4.90;4.40;;;8.50;91.40;;;;;;5043117;28;20430;-86
2021/11/29 12:27:00;;;;;;;6.83;4.80;;;8.30;91.40;;;;;;5029871;28;20473;-85
2021/11/29 12:29:44;;;;;;;10.43;6.20;;;8.10;91.80;;;;;;5060840;22;20488;-90
2021/11/29 12:32:14;;;;;;;18.63;12.00;;;7.70;92.50;;;;;;5040048;28;20949;-90
2021/11/29 12:34:59;;;;;;;17.30;10.60;;;7.50;93.20;;;;;;5057826;28;20523;-90
2021/11/29 12:40:03;;;;;;;9.40;5.57;;;7.00;94.00;;;;;;5057018;28;20451;-89
2021/11/29 12:42:53;;;;;;;9.33;6.00;;;6.80;94.30;;;;;;5049067;28;20449;-90
2021/11/29 12:45:24;;;;;;;9.10;6.27;;;6.70;94.50;;;;;;5046637;28;20461;-90
2021/11/29 12:47:56;;;;;;;8.73;5.73;;;6.70;94.70;;;;;;5059422;28;20480;-90
2021/11/29 12:50:33;;;;;;;9.60;6.10;;;6.70;94.90;;;;;;5057173;28;20457;-91
2021/11/29 12:53:19;;;;;;;11.20;7.30;;;6.70;95.00;;;;;;5056328;28;20471;-91